sensor_id;sensor_type;location;lat;lon;timestamp;pressure;altitude;pressure_sealevel;temperature;humidity
43804;BME280;29430;52.924;-2.388;2024-01-30T00:00:28;99331.72;;;10.24;100.00
43804;BME280;29430;52.924;-2.388;2024-01-30T00:05:19;99321.09;;;10.23;100.00
43804;BME280;29430;52.924;-2.388;2024-01-30T00:10:11;99325.66;;;10.22;100.00
43804;BME280;29430;52.924;-2.388;2024-01-30T00:15:03;99335.47;;;10.23;100.00
43804;BME280;29430;52.924;-2.388;2024-01-30T00:19:56;99339.00;;;10.24;100.00
43804;BME280;29430;52.924;-2.388;2024-01-30T00:24:48;99330.25;;;10.21;100.00
43804;BME280;29430;52.924;-2.388;2024-01-30T00:29:40;99345.47;;;10.23;100.00
43804;BME280;29430;52.924;-2.388;2024-01-30T00:34:31;99345.47;;;10.23;100.00
43804;BME280;29430;52.924;-2.388;2024-01-30T00:39:23;99337.81;;;10.19;100.00
43804;BME280;29430;52.924;-2.388;2024-01-30T00:44:15;99343.00;;;10.21;100.00
43804;BME280;29430;52.924;-2.388;2024-01-30T00:49:07;99350.06;;;10.22;100.00
43804;BME280;29430;52.924;-2.388;2024-01-30T00:53:58;99342.31;;;10.26;100.00
43804;BME280;29430;52.924;-2.388;2024-01-30T00:58:50;99350.00;;;10.29;100.00
43804;BME280;29430;52.924;-2.388;2024-01-30T01:03:42;99389.59;;;10.30;100.00
43804;BME280;29430;52.924;-2.388;2024-01-30T01:08:35;99410.72;;;10.02;100.00
43804;BME280;29430;52.924;-2.388;2024-01-30T01:13:27;99402.03;;;9.68;100.00
43804;BME280;29430;52.924;-2.388;2024-01-30T01:18:19;99412.41;;;9.40;100.00
43804;BME280;29430;52.924;-2.388;2024-01-30T01:23:10;99425.44;;;9.18;100.00
43804;BME280;29430;52.924;-2.388;2024-01-30T01:28:02;99421.78;;;8.99;100.00
43804;BME280;29430;52.924;-2.388;2024-01-30T01:32:55;99424.75;;;8.84;100.00
43804;BME280;29430;52.924;-2.388;2024-01-30T01:37:48;99431.66;;;8.73;100.00
43804;BME280;29430;52.924;-2.388;2024-01-30T01:42:46;99445.81;;;8.62;100.00
43804;BME280;29430;52.924;-2.388;2024-01-30T01:47:38;99450.63;;;8.53;100.00
43804;BME280;29430;52.924;-2.388;2024-01-30T01:52:29;99456.25;;;8.45;100.00
43804;BME280;29430;52.924;-2.388;2024-01-30T01:57:21;99455.19;;;8.39;100.00
43804;BME280;29430;52.924;-2.388;2024-01-30T02:02:14;99456.25;;;8.31;100.00
43804;BME280;29430;52.924;-2.388;2024-01-30T02:07:08;99462.69;;;8.23;100.00
43804;BME280;29430;52.924;-2.388;2024-01-30T02:11:59;99468.53;;;8.20;100.00
43804;BME280;29430;52.924;-2.388;2024-01-30T02:16:51;99480.34;;;8.19;100.00
43804;BME280;29430;52.924;-2.388;2024-01-30T02:21:44;99482.44;;;8.17;100.00
43804;BME280;29430;52.924;-2.388;2024-01-30T02:26:36;99482.00;;;8.14;100.00
43804;BME280;29430;52.924;-2.388;2024-01-30T02:31:28;99493.44;;;8.09;100.00
43804;BME280;29430;52.924;-2.388;2024-01-30T02:36:20;99482.44;;;8.04;100.00
43804;BME280;29430;52.924;-2.388;2024-01-30T02:41:12;99495.09;;;7.97;100.00
43804;BME280;29430;52.924;-2.388;2024-01-30T02:46:03;99501.09;;;7.92;100.00
43804;BME280;29430;52.924;-2.388;2024-01-30T02:50:55;99502.38;;;7.89;100.00
43804;BME280;29430;52.924;-2.388;2024-01-30T02:55:47;99518.94;;;7.80;100.00
43804;BME280;29430;52.924;-2.388;2024-01-30T03:00:38;99527.03;;;7.73;100.00
43804;BME280;29430;52.924;-2.388;2024-01-30T03:05:30;99534.88;;;7.61;100.00
43804;BME280;29430;52.924;-2.388;2024-01-30T03:10:22;99542.56;;;7.58;100.00
43804;BME280;29430;52.924;-2.388;2024-01-30T03:15:14;99540.88;;;7.50;100.00
43804;BME280;29430;52.924;-2.388;2024-01-30T03:20:06;99553.72;;;7.41;100.00
43804;BME280;29430;52.924;-2.388;2024-01-30T03:24:58;99552.00;;;7.27;100.00
43804;BME280;29430;52.924;-2.388;2024-01-30T03:29:50;99561.91;;;7.20;100.00
43804;BME280;29430;52.924;-2.388;2024-01-30T03:34:41;99566.66;;;7.11;100.00
43804;BME280;29430;52.924;-2.388;2024-01-30T03:39:33;99567.44;;;7.05;100.00
43804;BME280;29430;52.924;-2.388;2024-01-30T03:44:25;99576.53;;;6.97;100.00
43804;BME280;29430;52.924;-2.388;2024-01-30T03:49:17;99581.22;;;6.88;100.00
43804;BME280;29430;52.924;-2.388;2024-01-30T03:54:09;99586.13;;;6.78;100.00
43804;BME280;29430;52.924;-2.388;2024-01-30T03:59:01;99585.69;;;6.74;100.00
43804;BME280;29430;52.924;-2.388;2024-01-30T04:03:54;99598.94;;;6.69;100.00
43804;BME280;29430;52.924;-2.388;2024-01-30T04:08:46;99608.81;;;6.62;100.00
43804;BME280;29430;52.924;-2.388;2024-01-30T04:13:37;99614.97;;;6.56;100.00
43804;BME280;29430;52.924;-2.388;2024-01-30T04:18:29;99621.16;;;6.50;100.00
43804;BME280;29430;52.924;-2.388;2024-01-30T04:23:21;99632.75;;;6.50;100.00
43804;BME280;29430;52.924;-2.388;2024-01-30T04:28:13;99621.53;;;6.47;100.00
43804;BME280;29430;52.924;-2.388;2024-01-30T04:33:05;99641.59;;;6.44;100.00
43804;BME280;29430;52.924;-2.388;2024-01-30T04:37:56;99649.25;;;6.40;100.00
43804;BME280;29430;52.924;-2.388;2024-01-30T04:42:48;99663.88;;;6.31;100.00
43804;BME280;29430;52.924;-2.388;2024-01-30T04:47:40;99681.22;;;6.28;100.00
43804;BME280;29430;52.924;-2.388;2024-01-30T04:52:32;99688.88;;;6.25;100.00
43804;BME280;29430;52.924;-2.388;2024-01-30T04:57:23;99694.38;;;6.17;100.00
43804;BME280;29430;52.924;-2.388;2024-01-30T05:02:15;99704.31;;;6.16;100.00
43804;BME280;29430;52.924;-2.388;2024-01-30T05:07:07;99717.13;;;6.14;100.00
43804;BME280;29430;52.924;-2.388;2024-01-30T05:11:58;99729.28;;;6.10;100.00
43804;BME280;29430;52.924;-2.388;2024-01-30T05:16:50;99735.25;;;6.05;100.00
43804;BME280;29430;52.924;-2.388;2024-01-30T05:21:42;99740.81;;;6.04;100.00
43804;BME280;29430;52.924;-2.388;2024-01-30T05:26:34;99748.44;;;6.00;100.00
43804;BME280;29430;52.924;-2.388;2024-01-30T05:31:25;99767.47;;;5.99;100.00
43804;BME280;29430;52.924;-2.388;2024-01-30T05:36:18;99786.22;;;5.92;100.00
43804;BME280;29430;52.924;-2.388;2024-01-30T05:41:10;99788.78;;;5.85;100.00
43804;BME280;29430;52.924;-2.388;2024-01-30T05:46:02;99795.75;;;5.80;100.00
43804;BME280;29430;52.924;-2.388;2024-01-30T05:50:53;99806.97;;;5.83;100.00
43804;BME280;29430;52.924;-2.388;2024-01-30T05:55:46;99816.94;;;5.83;100.00
43804;BME280;29430;52.924;-2.388;2024-01-30T06:00:38;99818.31;;;5.79;100.00
43804;BME280;29430;52.924;-2.388;2024-01-30T06:05:29;99834.81;;;5.76;100.00
43804;BME280;29430;52.924;-2.388;2024-01-30T06:10:21;99820.72;;;5.73;100.00
43804;BME280;29430;52.924;-2.388;2024-01-30T06:15:13;99849.84;;;5.70;100.00
43804;BME280;29430;52.924;-2.388;2024-01-30T06:20:05;99858.09;;;5.68;100.00
43804;BME280;29430;52.924;-2.388;2024-01-30T06:24:57;99855.75;;;5.65;100.00
43804;BME280;29430;52.924;-2.388;2024-01-30T06:29:49;99871.63;;;5.60;100.00
43804;BME280;29430;52.924;-2.388;2024-01-30T06:34:41;99871.63;;;5.60;100.00
43804;BME280;29430;52.924;-2.388;2024-01-30T06:39:35;99886.09;;;5.59;100.00
43804;BME280;29430;52.924;-2.388;2024-01-30T06:44:27;99896.03;;;5.59;100.00
43804;BME280;29430;52.924;-2.388;2024-01-30T06:49:23;99905.97;;;5.58;100.00
43804;BME280;29430;52.924;-2.388;2024-01-30T06:54:15;99910.66;;;5.56;100.00
43804;BME280;29430;52.924;-2.388;2024-01-30T06:59:07;99917.72;;;5.57;100.00
43804;BME280;29430;52.924;-2.388;2024-01-30T07:03:59;99936.19;;;5.60;100.00
43804;BME280;29430;52.924;-2.388;2024-01-30T07:08:51;99933.50;;;5.60;100.00
43804;BME280;29430;52.924;-2.388;2024-01-30T07:13:43;99963.09;;;5.60;100.00
43804;BME280;29430;52.924;-2.388;2024-01-30T07:18:35;99970.03;;;5.54;100.00
43804;BME280;29430;52.924;-2.388;2024-01-30T07:23:26;99989.22;;;5.51;100.00
43804;BME280;29430;52.924;-2.388;2024-01-30T07:28:18;99992.09;;;5.50;100.00
43804;BME280;29430;52.924;-2.388;2024-01-30T07:33:10;100005.19;;;5.53;100.00
43804;BME280;29430;52.924;-2.388;2024-01-30T07:38:02;100014.75;;;5.55;100.00
43804;BME280;29430;52.924;-2.388;2024-01-30T07:42:54;100034.97;;;5.51;100.00
43804;BME280;29430;52.924;-2.388;2024-01-30T07:47:46;100042.38;;;5.49;100.00
43804;BME280;29430;52.924;-2.388;2024-01-30T07:52:37;100046.56;;;5.52;100.00
43804;BME280;29430;52.924;-2.388;2024-01-30T07:57:30;100052.13;;;5.50;100.00
43804;BME280;29430;52.924;-2.388;2024-01-30T08:02:22;100058.16;;;5.52;100.00
43804;BME280;29430;52.924;-2.388;2024-01-30T08:07:14;100074.13;;;5.54;100.00
43804;BME280;29430;52.924;-2.388;2024-01-30T08:12:06;100069.56;;;5.54;100.00
43804;BME280;29430;52.924;-2.388;2024-01-30T08:16:57;100090.28;;;5.54;100.00
43804;BME280;29430;52.924;-2.388;2024-01-30T08:21:49;100092.66;;;5.49;100.00
43804;BME280;29430;52.924;-2.388;2024-01-30T08:26:41;100104.44;;;5.48;100.00
43804;BME280;29430;52.924;-2.388;2024-01-30T08:31:33;100116.19;;;5.47;100.00
43804;BME280;29430;52.924;-2.388;2024-01-30T08:36:25;100123.25;;;5.48;100.00
43804;BME280;29430;52.924;-2.388;2024-01-30T08:41:17;100134.19;;;5.46;100.00
43804;BME280;29430;52.924;-2.388;2024-01-30T08:46:09;100153.03;;;5.46;100.00
43804;BME280;29430;52.924;-2.388;2024-01-30T08:51:00;100149.50;;;5.46;100.00
43804;BME280;29430;52.924;-2.388;2024-01-30T08:55:52;100163.28;;;5.51;100.00
43804;BME280;29430;52.924;-2.388;2024-01-30T09:00:44;100173.69;;;5.54;100.00
43804;BME280;29430;52.924;-2.388;2024-01-30T09:05:36;100187.66;;;5.49;100.00
43804;BME280;29430;52.924;-2.388;2024-01-30T09:10:27;100192.91;;;5.43;100.00
43804;BME280;29430;52.924;-2.388;2024-01-30T09:15:19;100219.97;;;5.41;100.00
43804;BME280;29430;52.924;-2.388;2024-01-30T09:20:14;100226.84;;;5.44;100.00
43804;BME280;29430;52.924;-2.388;2024-01-30T09:25:06;100240.13;;;5.45;100.00
43804;BME280;29430;52.924;-2.388;2024-01-30T09:29:58;100236.59;;;5.45;100.00
43804;BME280;29430;52.924;-2.388;2024-01-30T09:34:49;100259.63;;;5.47;100.00
43804;BME280;29430;52.924;-2.388;2024-01-30T09:39:41;100285.84;;;5.45;100.00
43804;BME280;29430;52.924;-2.388;2024-01-30T09:44:34;100278.66;;;5.46;100.00
43804;BME280;29430;52.924;-2.388;2024-01-30T09:49:27;100286.38;;;5.49;100.00
43804;BME280;29430;52.924;-2.388;2024-01-30T09:54:19;100296.28;;;5.48;100.00
43804;BME280;29430;52.924;-2.388;2024-01-30T09:59:11;100316.63;;;5.51;100.00
43804;BME280;29430;52.924;-2.388;2024-01-30T10:04:04;100328.06;;;5.53;100.00
43804;BME280;29430;52.924;-2.388;2024-01-30T10:08:56;100342.19;;;5.55;100.00
43804;BME280;29430;52.924;-2.388;2024-01-30T10:13:49;100353.44;;;5.59;100.00
43804;BME280;29430;52.924;-2.388;2024-01-30T10:18:41;100354.97;;;5.61;100.00
43804;BME280;29430;52.924;-2.388;2024-01-30T10:23:35;100370.78;;;5.64;100.00
43804;BME280;29430;52.924;-2.388;2024-01-30T10:28:28;100379.50;;;5.66;100.00
43804;BME280;29430;52.924;-2.388;2024-01-30T10:33:22;100374.97;;;5.67;100.00
43804;BME280;29430;52.924;-2.388;2024-01-30T10:38:15;100390.59;;;5.71;100.00
43804;BME280;29430;52.924;-2.388;2024-01-30T10:43:10;100387.22;;;5.78;100.00
43804;BME280;29430;52.924;-2.388;2024-01-30T10:48:05;100400.69;;;5.94;100.00
43804;BME280;29430;52.924;-2.388;2024-01-30T10:52:59;100408.78;;;6.02;100.00
43804;BME280;29430;52.924;-2.388;2024-01-30T10:57:51;100421.41;;;6.02;100.00
43804;BME280;29430;52.924;-2.388;2024-01-30T11:02:45;100426.13;;;6.00;100.00
43804;BME280;29430;52.924;-2.388;2024-01-30T11:07:41;100446.63;;;6.01;100.00
43804;BME280;29430;52.924;-2.388;2024-01-30T11:12:37;100450.03;;;6.03;100.00
43804;BME280;29430;52.924;-2.388;2024-01-30T11:22:41;100454.53;;;5.94;100.00
43804;BME280;29430;52.924;-2.388;2024-01-30T11:27:33;100465.31;;;5.94;100.00
43804;BME280;29430;52.924;-2.388;2024-01-30T11:32:24;100468.81;;;5.95;100.00
43804;BME280;29430;52.924;-2.388;2024-01-30T11:37:19;100485.53;;;5.98;100.00
43804;BME280;29430;52.924;-2.388;2024-01-30T11:42:13;100492.41;;;6.01;100.00
43804;BME280;29430;52.924;-2.388;2024-01-30T11:47:05;100492.09;;;6.04;100.00
43804;BME280;29430;52.924;-2.388;2024-01-30T11:51:57;100493.94;;;6.12;100.00
43804;BME280;29430;52.924;-2.388;2024-01-30T11:56:49;100493.25;;;6.18;100.00
43804;BME280;29430;52.924;-2.388;2024-01-30T12:01:40;100513.28;;;6.23;100.00
43804;BME280;29430;52.924;-2.388;2024-01-30T12:06:32;100519.19;;;6.35;100.00
43804;BME280;29430;52.924;-2.388;2024-01-30T12:11:27;100524.53;;;6.52;100.00
43804;BME280;29430;52.924;-2.388;2024-01-30T12:16:19;100513.72;;;6.68;100.00
43804;BME280;29430;52.924;-2.388;2024-01-30T12:21:11;100514.81;;;6.98;100.00
43804;BME280;29430;52.924;-2.388;2024-01-30T12:26:04;100504.44;;;7.10;100.00
43804;BME280;29430;52.924;-2.388;2024-01-30T12:31:04;100517.59;;;7.13;100.00
43804;BME280;29430;52.924;-2.388;2024-01-30T12:35:56;100532.72;;;7.31;100.00
43804;BME280;29430;52.924;-2.388;2024-01-30T12:40:54;100544.56;;;7.53;100.00
43804;BME280;29430;52.924;-2.388;2024-01-30T12:45:47;100527.84;;;7.81;100.00
43804;BME280;29430;52.924;-2.388;2024-01-30T12:50:39;100526.75;;;8.13;100.00
43804;BME280;29430;52.924;-2.388;2024-01-30T12:55:30;100536.09;;;8.49;99.95
43804;BME280;29430;52.924;-2.388;2024-01-30T13:00:22;100540.97;;;8.83;99.21
43804;BME280;29430;52.924;-2.388;2024-01-30T13:05:14;100553.22;;;9.09;97.51
43804;BME280;29430;52.924;-2.388;2024-01-30T13:10:06;100561.72;;;9.21;93.84
43804;BME280;29430;52.924;-2.388;2024-01-30T13:15:00;100566.00;;;9.30;94.46
43804;BME280;29430;52.924;-2.388;2024-01-30T13:19:52;100564.28;;;9.44;91.69
43804;BME280;29430;52.924;-2.388;2024-01-30T13:24:45;100560.72;;;9.58;90.60
43804;BME280;29430;52.924;-2.388;2024-01-30T13:29:37;100573.56;;;9.71;88.86
43804;BME280;29430;52.924;-2.388;2024-01-30T13:34:29;100571.41;;;9.66;87.63
43804;BME280;29430;52.924;-2.388;2024-01-30T13:39:21;100584.06;;;9.59;87.20
43804;BME280;29430;52.924;-2.388;2024-01-30T13:44:16;100580.25;;;9.39;85.03
43804;BME280;29430;52.924;-2.388;2024-01-30T13:49:11;100581.75;;;9.26;87.13
43804;BME280;29430;52.924;-2.388;2024-01-30T13:54:03;100573.47;;;8.98;86.40
43804;BME280;29430;52.924;-2.388;2024-01-30T13:58:55;100584.75;;;8.87;88.48
43804;BME280;29430;52.924;-2.388;2024-01-30T14:03:49;100581.69;;;8.90;86.42
43804;BME280;29430;52.924;-2.388;2024-01-30T14:08:41;100580.53;;;8.84;88.17
43804;BME280;29430;52.924;-2.388;2024-01-30T14:13:38;100579.16;;;8.88;87.10
43804;BME280;29430;52.924;-2.388;2024-01-30T14:18:30;100583.97;;;8.78;84.83
43804;BME280;29430;52.924;-2.388;2024-01-30T14:23:23;100596.38;;;8.57;84.01
43804;BME280;29430;52.924;-2.388;2024-01-30T14:28:15;100594.94;;;8.38;82.76
43804;BME280;29430;52.924;-2.388;2024-01-30T14:33:07;100617.91;;;8.19;80.43
43804;BME280;29430;52.924;-2.388;2024-01-30T14:37:59;100625.22;;;8.11;79.52
43804;BME280;29430;52.924;-2.388;2024-01-30T14:42:51;100620.00;;;8.09;77.91
43804;BME280;29430;52.924;-2.388;2024-01-30T14:47:42;100628.09;;;8.09;77.79
43804;BME280;29430;52.924;-2.388;2024-01-30T14:52:34;100615.63;;;8.08;77.40
43804;BME280;29430;52.924;-2.388;2024-01-30T14:57:27;100616.47;;;8.09;76.12
43804;BME280;29430;52.924;-2.388;2024-01-30T15:02:21;100621.69;;;8.10;79.44
43804;BME280;29430;52.924;-2.388;2024-01-30T15:07:12;100618.63;;;8.13;78.53
43804;BME280;29430;52.924;-2.388;2024-01-30T15:12:15;100627.44;;;8.07;76.06
43804;BME280;29430;52.924;-2.388;2024-01-30T15:17:07;100628.81;;;8.03;77.24
43804;BME280;29430;52.924;-2.388;2024-01-30T15:21:58;100632.06;;;7.98;76.52
43804;BME280;29430;52.924;-2.388;2024-01-30T15:26:51;100631.94;;;7.92;78.07
43804;BME280;29430;52.924;-2.388;2024-01-30T15:31:43;100640.56;;;7.87;78.40
43804;BME280;29430;52.924;-2.388;2024-01-30T15:36:35;100641.94;;;7.83;79.21
43804;BME280;29430;52.924;-2.388;2024-01-30T15:41:27;100652.44;;;7.78;80.69
43804;BME280;29430;52.924;-2.388;2024-01-30T15:46:19;100660.59;;;7.69;79.93
43804;BME280;29430;52.924;-2.388;2024-01-30T15:51:11;100656.06;;;7.62;80.50
43804;BME280;29430;52.924;-2.388;2024-01-30T15:56:03;100652.00;;;7.58;81.53
43804;BME280;29430;52.924;-2.388;2024-01-30T16:00:55;100660.81;;;7.51;80.54
43804;BME280;29430;52.924;-2.388;2024-01-30T16:05:47;100635.38;;;7.38;80.42
43804;BME280;29430;52.924;-2.388;2024-01-30T16:10:38;100660.72;;;7.28;81.58
43804;BME280;29430;52.924;-2.388;2024-01-30T16:15:30;100670.84;;;7.18;80.32
43804;BME280;29430;52.924;-2.388;2024-01-30T16:20:22;100674.56;;;7.09;81.66
43804;BME280;29430;52.924;-2.388;2024-01-30T16:25:14;100680.50;;;6.96;82.63
43804;BME280;29430;52.924;-2.388;2024-01-30T16:30:09;100675.31;;;6.86;82.46
43804;BME280;29430;52.924;-2.388;2024-01-30T16:35:01;100677.81;;;6.79;83.57
43804;BME280;29430;52.924;-2.388;2024-01-30T16:39:53;100696.03;;;6.69;83.72
43804;BME280;29430;52.924;-2.388;2024-01-30T16:44:45;100705.13;;;6.60;84.32
43804;BME280;29430;52.924;-2.388;2024-01-30T16:49:37;100715.53;;;6.55;85.37
43804;BME280;29430;52.924;-2.388;2024-01-30T16:54:28;100718.75;;;6.50;85.40
43804;BME280;29430;52.924;-2.388;2024-01-30T16:59:20;100710.97;;;6.39;85.20
43804;BME280;29430;52.924;-2.388;2024-01-30T17:04:12;100723.09;;;6.26;85.25
43804;BME280;29430;52.924;-2.388;2024-01-30T17:09:04;100712.97;;;6.12;84.07
43804;BME280;29430;52.924;-2.388;2024-01-30T17:13:56;100717.78;;;6.00;85.99
43804;BME280;29430;52.924;-2.388;2024-01-30T17:18:48;100726.13;;;5.89;85.66
43804;BME280;29430;52.924;-2.388;2024-01-30T17:23:40;100753.00;;;5.81;86.13
43804;BME280;29430;52.924;-2.388;2024-01-30T17:28:32;100762.44;;;5.77;85.85
43804;BME280;29430;52.924;-2.388;2024-01-30T17:33:23;100752.63;;;5.67;87.49
43804;BME280;29430;52.924;-2.388;2024-01-30T17:38:15;100744.88;;;5.64;87.23
43804;BME280;29430;52.924;-2.388;2024-01-30T17:43:07;100747.50;;;5.56;88.02
43804;BME280;29430;52.924;-2.388;2024-01-30T17:47:59;100772.66;;;5.47;88.78
43804;BME280;29430;52.924;-2.388;2024-01-30T17:52:51;100769.25;;;5.36;88.39
43804;BME280;29430;52.924;-2.388;2024-01-30T17:57:45;100787.34;;;5.26;89.56
43804;BME280;29430;52.924;-2.388;2024-01-30T18:02:37;100785.41;;;5.18;89.80
43804;BME280;29430;52.924;-2.388;2024-01-30T18:07:28;100805.34;;;5.08;90.65
43804;BME280;29430;52.924;-2.388;2024-01-30T18:12:20;100806.97;;;5.00;90.85
43804;BME280;29430;52.924;-2.388;2024-01-30T18:17:12;100809.03;;;4.89;91.33
43804;BME280;29430;52.924;-2.388;2024-01-30T18:22:04;100805.56;;;4.78;92.49
43804;BME280;29430;52.924;-2.388;2024-01-30T18:26:56;100813.88;;;4.67;92.74
43804;BME280;29430;52.924;-2.388;2024-01-30T18:31:48;100823.53;;;4.60;93.44
43804;BME280;29430;52.924;-2.388;2024-01-30T18:36:39;100818.59;;;4.55;93.04
43804;BME280;29430;52.924;-2.388;2024-01-30T18:41:33;100819.66;;;4.44;92.65
43804;BME280;29430;52.924;-2.388;2024-01-30T18:46:25;100813.59;;;4.15;94.34
43804;BME280;29430;52.924;-2.388;2024-01-30T18:51:16;100832.09;;;4.18;95.43
43804;BME280;29430;52.924;-2.388;2024-01-30T18:56:08;100826.59;;;4.19;96.09
43804;BME280;29430;52.924;-2.388;2024-01-30T19:01:00;100820.09;;;4.12;94.65
43804;BME280;29430;52.924;-2.388;2024-01-30T19:05:53;100832.31;;;4.06;96.02
43804;BME280;29430;52.924;-2.388;2024-01-30T19:10:45;100830.75;;;4.04;95.32
43804;BME280;29430;52.924;-2.388;2024-01-30T19:15:37;100834.63;;;3.91;95.07
43804;BME280;29430;52.924;-2.388;2024-01-30T19:20:29;100838.72;;;3.86;96.76
43804;BME280;29430;52.924;-2.388;2024-01-30T19:25:21;100826.03;;;3.78;96.29
43804;BME280;29430;52.924;-2.388;2024-01-30T19:30:13;100835.53;;;3.63;96.86
43804;BME280;29430;52.924;-2.388;2024-01-30T19:35:05;100842.44;;;3.65;97.88
43804;BME280;29430;52.924;-2.388;2024-01-30T19:39:57;100855.19;;;3.63;97.34
43804;BME280;29430;52.924;-2.388;2024-01-30T19:44:49;100869.31;;;3.46;97.01
43804;BME280;29430;52.924;-2.388;2024-01-30T19:49:40;100871.56;;;3.40;98.09
43804;BME280;29430;52.924;-2.388;2024-01-30T19:54:33;100872.28;;;3.33;98.37
43804;BME280;29430;52.924;-2.388;2024-01-30T19:59:25;100882.47;;;3.29;98.86
43804;BME280;29430;52.924;-2.388;2024-01-30T20:04:18;100879.19;;;3.16;98.93
43804;BME280;29430;52.924;-2.388;2024-01-30T20:09:09;100891.78;;;3.15;99.46
43804;BME280;29430;52.924;-2.388;2024-01-30T20:14:01;100893.59;;;3.15;99.53
43804;BME280;29430;52.924;-2.388;2024-01-30T20:18:53;100881.47;;;3.20;99.91
43804;BME280;29430;52.924;-2.388;2024-01-30T20:23:45;100890.19;;;3.22;99.64
43804;BME280;29430;52.924;-2.388;2024-01-30T20:28:36;100890.19;;;3.22;98.74
43804;BME280;29430;52.924;-2.388;2024-01-30T20:33:28;100889.22;;;3.23;99.21
43804;BME280;29430;52.924;-2.388;2024-01-30T20:38:20;100899.94;;;3.23;99.11
43804;BME280;29430;52.924;-2.388;2024-01-30T20:43:13;100893.03;;;3.21;99.19
43804;BME280;29430;52.924;-2.388;2024-01-30T20:48:05;100898.97;;;3.25;98.96
43804;BME280;29430;52.924;-2.388;2024-01-30T20:52:57;100903.75;;;3.21;98.74
43804;BME280;29430;52.924;-2.388;2024-01-30T20:57:49;100907.56;;;3.18;97.88
43804;BME280;29430;52.924;-2.388;2024-01-30T21:02:41;100897.00;;;3.17;97.72
43804;BME280;29430;52.924;-2.388;2024-01-30T21:07:33;100918.72;;;3.14;98.19
43804;BME280;29430;52.924;-2.388;2024-01-30T21:12:25;100917.44;;;3.08;98.13
43804;BME280;29430;52.924;-2.388;2024-01-30T21:17:16;100916.47;;;3.09;98.38
43804;BME280;29430;52.924;-2.388;2024-01-30T21:22:08;100914.06;;;3.06;98.82
43804;BME280;29430;52.924;-2.388;2024-01-30T21:27:00;100894.56;;;3.04;98.90
43804;BME280;29430;52.924;-2.388;2024-01-30T21:31:52;100903.75;;;3.01;99.03
43804;BME280;29430;52.924;-2.388;2024-01-30T21:36:44;100902.03;;;3.00;98.80
43804;BME280;29430;52.924;-2.388;2024-01-30T21:41:35;100887.94;;;2.98;99.39
43804;BME280;29430;52.924;-2.388;2024-01-30T21:46:27;100886.25;;;2.97;99.53
43804;BME280;29430;52.924;-2.388;2024-01-30T21:51:19;100898.94;;;2.95;99.87
43804;BME280;29430;52.924;-2.388;2024-01-30T21:56:11;100898.63;;;2.89;100.00
43804;BME280;29430;52.924;-2.388;2024-01-30T22:01:03;100905.84;;;2.88;100.00
43804;BME280;29430;52.924;-2.388;2024-01-30T22:05:55;100918.41;;;2.88;100.00
43804;BME280;29430;52.924;-2.388;2024-01-30T22:10:46;100914.97;;;2.85;100.00
43804;BME280;29430;52.924;-2.388;2024-01-30T22:15:38;100911.59;;;2.83;100.00
43804;BME280;29430;52.924;-2.388;2024-01-30T22:20:31;100910.91;;;2.81;100.00
43804;BME280;29430;52.924;-2.388;2024-01-30T22:25:24;100895.66;;;2.82;100.00
43804;BME280;29430;52.924;-2.388;2024-01-30T22:30:17;100878.63;;;2.83;100.00
43804;BME280;29430;52.924;-2.388;2024-01-30T22:35:08;100887.06;;;2.78;100.00
43804;BME280;29430;52.924;-2.388;2024-01-30T22:40:03;100888.59;;;2.71;100.00
43804;BME280;29430;52.924;-2.388;2024-01-30T22:44:55;100888.16;;;2.66;100.00
43804;BME280;29430;52.924;-2.388;2024-01-30T22:49:47;100894.50;;;2.65;100.00
43804;BME280;29430;52.924;-2.388;2024-01-30T22:54:39;100889.16;;;2.65;100.00
43804;BME280;29430;52.924;-2.388;2024-01-30T22:59:30;100888.44;;;2.63;100.00
43804;BME280;29430;52.924;-2.388;2024-01-30T23:04:22;100887.00;;;2.59;100.00
43804;BME280;29430;52.924;-2.388;2024-01-30T23:09:14;100897.59;;;2.60;100.00
43804;BME280;29430;52.924;-2.388;2024-01-30T23:14:08;100900.41;;;2.59;100.00
43804;BME280;29430;52.924;-2.388;2024-01-30T23:19:00;100911.81;;;2.61;100.00
43804;BME280;29430;52.924;-2.388;2024-01-30T23:23:52;100925.22;;;2.61;100.00
43804;BME280;29430;52.924;-2.388;2024-01-30T23:28:44;100918.31;;;2.58;100.00
43804;BME280;29430;52.924;-2.388;2024-01-30T23:33:37;100930.13;;;2.56;100.00
43804;BME280;29430;52.924;-2.388;2024-01-30T23:38:28;100927.59;;;2.54;100.00
43804;BME280;29430;52.924;-2.388;2024-01-30T23:43:20;100912.78;;;2.50;100.00
43804;BME280;29430;52.924;-2.388;2024-01-30T23:48:12;100903.34;;;2.46;100.00
43804;BME280;29430;52.924;-2.388;2024-01-30T23:53:04;100903.34;;;2.46;100.00
43804;BME280;29430;52.924;-2.388;2024-01-30T23:57:57;100893.47;;;2.46;100.00
